createdAt,value
2022-12-11T00:02:05.095Z,-0.40
2022-12-11T00:04:35.289Z,-0.40
2022-12-11T00:07:06.571Z,-0.50
2022-12-11T00:09:35.491Z,-0.50
2022-12-11T00:12:05.281Z,-0.50
2022-12-11T00:14:34.189Z,-0.40
2022-12-11T00:17:02.958Z,-0.50
2022-12-11T00:19:31.630Z,-0.50
2022-12-11T00:22:00.511Z,-0.50
2022-12-11T00:24:30.684Z,-0.60
2022-12-11T00:26:59.146Z,-0.60
2022-12-11T00:29:28.930Z,-0.50
2022-12-11T00:31:57.812Z,-0.50
2022-12-11T00:34:26.789Z,-0.50
2022-12-11T00:36:55.195Z,-0.50
2022-12-11T00:39:23.650Z,-0.50
2022-12-11T00:41:53.465Z,-0.50
2022-12-11T00:44:22.072Z,-0.40
2022-12-11T00:46:50.925Z,-0.40
2022-12-11T00:49:19.355Z,-0.40
2022-12-11T00:51:48.277Z,-0.40
2022-12-11T00:54:16.713Z,-0.40
2022-12-11T00:56:45.503Z,-0.40
2022-12-11T00:59:16.094Z,-0.40
2022-12-11T01:01:45.540Z,-0.40
2022-12-11T01:04:13.979Z,-0.40
2022-12-11T01:06:42.328Z,-0.50
2022-12-11T01:09:28.279Z,-0.40
2022-12-11T01:11:57.139Z,-0.50
2022-12-11T01:14:28.539Z,-0.50
2022-12-11T01:16:57.597Z,-0.60
2022-12-11T01:19:26.145Z,-0.60
2022-12-11T01:21:54.669Z,-0.60
2022-12-11T01:24:22.991Z,-0.60
2022-12-11T01:26:51.638Z,-0.70
2022-12-11T01:29:20.155Z,-0.80
2022-12-11T01:31:50.291Z,-0.80
2022-12-11T01:34:18.915Z,-0.80
2022-12-11T01:36:47.433Z,-0.90
2022-12-11T01:39:16.666Z,-0.90
2022-12-11T01:41:48.730Z,-1.00
2022-12-11T01:45:12.696Z,-1.10
2022-12-11T01:47:47.243Z,-1.20
2022-12-11T01:50:17.312Z,-1.30
2022-12-11T01:52:48.158Z,-1.30
2022-12-11T01:55:18.631Z,-1.50
2022-12-11T01:57:52.429Z,-1.60
2022-12-11T02:00:22.031Z,-1.60
2022-12-11T02:02:54.167Z,-1.70
2022-12-11T02:05:23.300Z,-1.80
2022-12-11T02:07:56.691Z,-1.90
2022-12-11T02:10:37.366Z,-1.90
2022-12-11T02:13:14.501Z,-2.00
2022-12-11T02:15:51.443Z,-1.90
2022-12-11T02:18:30.699Z,-1.90
2022-12-11T02:21:06.788Z,-1.80
2022-12-11T02:24:12.748Z,-1.90
2022-12-11T02:27:30.794Z,-1.90
2022-12-11T02:30:07.601Z,-1.90
2022-12-11T02:32:42.174Z,-1.90
2022-12-11T02:35:17.801Z,-2.00
2022-12-11T02:37:48.505Z,-1.90
2022-12-11T02:40:22.911Z,-1.80
2022-12-11T02:42:53.046Z,-1.70
2022-12-11T02:45:24.839Z,-1.70
2022-12-11T02:47:54.992Z,-1.60
2022-12-11T02:50:25.774Z,-1.50
2022-12-11T02:52:57.678Z,-1.50
2022-12-11T02:55:30.211Z,-1.40
2022-12-11T02:58:09.494Z,-1.30
2022-12-11T03:00:40.306Z,-1.30
2022-12-11T03:03:12.508Z,-1.30
2022-12-11T03:05:41.728Z,-1.20
2022-12-11T03:08:10.489Z,-1.20
2022-12-11T03:10:40.094Z,-1.20
2022-12-11T03:13:09.091Z,-1.20
2022-12-11T03:15:53.746Z,-1.10
2022-12-11T03:18:34.564Z,-1.10
2022-12-11T03:21:08.316Z,-1.10
2022-12-11T03:23:46.262Z,-1.10
2022-12-11T03:26:19.191Z,-1.10
2022-12-11T03:28:52.688Z,-1.10
2022-12-11T03:31:29.771Z,-1.10
2022-12-11T03:34:03.655Z,-1.10
2022-12-11T03:36:36.448Z,-1.20
2022-12-11T03:39:10.492Z,-1.20
2022-12-11T03:41:40.456Z,-1.20
2022-12-11T03:44:09.560Z,-1.30
2022-12-11T03:46:42.912Z,-1.40
2022-12-11T03:49:17.944Z,-1.50
2022-12-11T03:51:50.053Z,-1.70
2022-12-11T03:54:19.373Z,-1.70
2022-12-11T03:56:50.397Z,-1.80
2022-12-11T03:59:18.961Z,-1.80
2022-12-11T04:01:50.159Z,-1.90
2022-12-11T04:04:19.021Z,-2.00
2022-12-11T04:06:47.478Z,-2.00
2022-12-11T04:09:15.828Z,-2.10
2022-12-11T04:11:44.161Z,-2.10
2022-12-11T04:14:32.157Z,-2.00
2022-12-11T04:17:03.266Z,-2.00
2022-12-11T04:19:49.163Z,-1.80
2022-12-11T04:22:35.773Z,-1.90
2022-12-11T04:25:07.264Z,-1.80
2022-12-11T04:27:50.477Z,-1.70
2022-12-11T04:30:21.311Z,-1.60
2022-12-11T04:32:52.224Z,-1.60
2022-12-11T04:35:21.523Z,-1.50
2022-12-11T04:37:50.199Z,-1.60
2022-12-11T04:40:21.421Z,-1.60
2022-12-11T04:42:50.916Z,-1.60
2022-12-11T04:45:19.847Z,-1.70
2022-12-11T04:47:48.383Z,-1.70
2022-12-11T04:50:19.486Z,-1.80
2022-12-11T04:52:47.847Z,-1.90
2022-12-11T04:55:16.719Z,-2.00
2022-12-11T04:57:45.365Z,-2.10
2022-12-11T05:00:15.453Z,-2.10
2022-12-11T05:02:44.312Z,-2.30
2022-12-11T05:05:14.005Z,-2.30
2022-12-11T05:07:43.971Z,-2.20
2022-12-11T05:10:12.346Z,-2.40
2022-12-11T05:12:40.734Z,-2.40
2022-12-11T05:15:10.518Z,-2.50
2022-12-11T05:17:39.202Z,-2.60
2022-12-11T05:20:10.262Z,-2.80
2022-12-11T05:22:39.020Z,-3.00
2022-12-11T05:25:09.817Z,-3.10
2022-12-11T05:27:38.470Z,-3.10
2022-12-11T05:30:09.387Z,-3.10
2022-12-11T05:32:37.826Z,-3.10
2022-12-11T05:35:07.169Z,-3.10
2022-12-11T05:37:35.588Z,-3.10
2022-12-11T05:40:06.241Z,-3.10
2022-12-11T05:42:36.869Z,-3.20
2022-12-11T05:45:06.100Z,-3.30
2022-12-11T05:47:34.475Z,-3.50
2022-12-11T05:50:02.867Z,-3.40
2022-12-11T05:52:33.542Z,-3.60
2022-12-11T05:55:03.237Z,-3.80
2022-12-11T05:57:31.572Z,-3.90
2022-12-11T06:00:01.289Z,-4.00
2022-12-11T06:02:29.797Z,-4.10
2022-12-11T06:04:58.173Z,-4.20
2022-12-11T06:07:26.589Z,-4.20
2022-12-11T06:09:55.143Z,-4.30
2022-12-11T06:12:23.500Z,-4.40
2022-12-11T06:14:51.753Z,-4.40
2022-12-11T06:17:22.362Z,-4.30
2022-12-11T06:19:50.753Z,-4.20
2022-12-11T06:22:19.029Z,-4.20
2022-12-11T06:24:48.075Z,-4.10
2022-12-11T06:27:16.395Z,-4.00
2022-12-11T06:29:44.674Z,-3.90
2022-12-11T06:32:13.001Z,-3.90
2022-12-11T06:34:42.696Z,-3.80
2022-12-11T06:37:11.770Z,-3.70
2022-12-11T06:39:40.069Z,-3.70
2022-12-11T06:42:08.401Z,-3.70
2022-12-11T06:44:36.655Z,-3.70
2022-12-11T06:47:05.669Z,-3.80
2022-12-11T06:49:34.055Z,-3.80
2022-12-11T06:52:03.719Z,-3.80
2022-12-11T06:54:32.183Z,-3.90
2022-12-11T06:57:00.495Z,-3.90
2022-12-11T06:59:28.819Z,-3.90
2022-12-11T07:01:57.710Z,-3.80
2022-12-11T07:04:27.714Z,-3.70
2022-12-11T07:06:56.051Z,-3.50
2022-12-11T07:09:26.205Z,-3.50
2022-12-11T07:11:54.807Z,-3.40
2022-12-11T07:14:23.139Z,-3.40
2022-12-11T07:16:51.931Z,-3.40
2022-12-11T07:19:20.488Z,-3.40
2022-12-11T07:21:48.807Z,-3.50
2022-12-11T07:24:17.117Z,-3.50
2022-12-11T07:26:47.313Z,-3.60
2022-12-11T07:29:15.599Z,-3.60
2022-12-11T07:31:46.544Z,-3.70
2022-12-11T07:34:15.332Z,-3.70
2022-12-11T07:36:44.678Z,-3.70
2022-12-11T07:39:13.493Z,-3.70
2022-12-11T07:41:43.885Z,-3.70
2022-12-11T07:44:14.700Z,-3.70
2022-12-11T07:46:43.026Z,-3.70
2022-12-11T07:49:11.376Z,-3.80
2022-12-11T07:51:40.531Z,-3.80
2022-12-11T07:54:16.841Z,-3.90
2022-12-11T07:56:49.883Z,-3.90
2022-12-11T07:59:23.044Z,-3.90
2022-12-11T08:01:53.766Z,-3.80
2022-12-11T08:04:22.181Z,-3.70
2022-12-11T08:06:50.722Z,-3.70
2022-12-11T08:09:22.637Z,-3.70
2022-12-11T08:11:51.720Z,-3.80
2022-12-11T08:14:20.741Z,-3.80
2022-12-11T08:16:57.538Z,-3.60
2022-12-11T08:19:28.229Z,-3.30
2022-12-11T08:21:56.712Z,-3.00
2022-12-11T08:24:25.066Z,-2.80
2022-12-11T08:26:53.363Z,-2.60
2022-12-11T08:29:22.905Z,-2.40
2022-12-11T08:31:51.544Z,-2.20
2022-12-11T08:34:21.452Z,-2.00
2022-12-11T08:36:49.746Z,-1.80
2022-12-11T08:39:18.051Z,-1.60
2022-12-11T08:41:46.469Z,-1.50
2022-12-11T08:44:16.988Z,-1.40
2022-12-11T08:46:46.521Z,-1.30
2022-12-11T08:49:14.884Z,-1.40
2022-12-11T08:51:44.684Z,-1.30
2022-12-11T08:54:13.515Z,-1.20
2022-12-11T08:56:42.056Z,-1.10
2022-12-11T08:59:11.606Z,-1.10
2022-12-11T09:01:40.912Z,-1.00
2022-12-11T09:04:09.300Z,-0.80
2022-12-11T09:06:37.670Z,-0.70
2022-12-11T09:09:07.520Z,-0.40
2022-12-11T09:11:38.258Z,-0.40
2022-12-11T09:14:08.380Z,-0.30
2022-12-11T09:16:40.244Z,-0.10
2022-12-11T09:19:13.443Z,0.00
2022-12-11T09:21:43.933Z,0.00
2022-12-11T09:24:15.127Z,-0.10
2022-12-11T09:26:43.937Z,0.10
2022-12-11T09:29:12.808Z,0.10
2022-12-11T09:31:41.931Z,0.10
2022-12-11T09:34:14.207Z,-0.10
2022-12-11T09:36:44.224Z,-0.10
2022-12-11T09:39:16.158Z,-0.30
2022-12-11T09:41:55.356Z,0.10
2022-12-11T09:44:35.863Z,0.10
2022-12-11T09:47:04.601Z,0.20
2022-12-11T09:49:40.316Z,0.00
2022-12-11T09:52:15.664Z,-0.10
2022-12-11T09:54:50.753Z,-0.40
2022-12-11T09:57:39.871Z,-0.50
2022-12-11T10:00:29.696Z,-0.30
2022-12-11T10:03:22.150Z,0.10
2022-12-11T10:06:01.155Z,-0.10
2022-12-11T10:08:41.384Z,-0.30
2022-12-11T10:11:56.874Z,-0.40
2022-12-11T10:14:41.142Z,-0.40
2022-12-11T10:17:17.202Z,-0.50
2022-12-11T10:19:46.475Z,-0.40
2022-12-11T10:22:23.250Z,-0.50
2022-12-11T10:25:10.645Z,-0.20
2022-12-11T10:27:44.776Z,0.00
2022-12-11T10:30:19.445Z,0.00
2022-12-11T10:33:07.416Z,-0.30
2022-12-11T10:35:42.462Z,-0.10
2022-12-11T10:38:17.480Z,0.00
2022-12-11T10:40:52.513Z,0.00
2022-12-11T10:43:34.570Z,0.10
2022-12-11T10:46:03.663Z,0.10
2022-12-11T10:48:32.009Z,0.10
2022-12-11T10:51:05.601Z,-0.10
2022-12-11T10:53:39.557Z,0.00
2022-12-11T10:56:09.006Z,0.10
2022-12-11T10:58:50.465Z,0.10
2022-12-11T11:01:24.194Z,0.10
2022-12-11T11:03:59.970Z,0.20
2022-12-11T11:06:31.093Z,0.50
2022-12-11T11:09:03.286Z,0.60
2022-12-11T11:11:35.274Z,0.50
2022-12-11T11:14:17.527Z,0.60
2022-12-11T11:16:48.038Z,0.60
2022-12-11T11:19:22.711Z,0.70
2022-12-11T11:21:54.797Z,0.60
2022-12-11T11:24:31.450Z,0.50
2022-12-11T11:27:15.476Z,0.10
2022-12-11T11:29:51.562Z,0.50
2022-12-11T11:32:28.064Z,0.80
2022-12-11T11:35:18.374Z,0.90
2022-12-11T11:37:56.245Z,1.00
2022-12-11T11:40:30.645Z,1.10
2022-12-11T11:43:12.435Z,0.90
2022-12-11T11:45:51.314Z,1.20
2022-12-11T11:48:35.343Z,1.20
2022-12-11T11:51:16.277Z,0.90
2022-12-11T11:53:53.492Z,0.90
2022-12-11T11:56:27.180Z,0.80
2022-12-11T11:59:10.282Z,0.40
2022-12-11T12:01:43.160Z,0.30
2022-12-11T12:04:14.258Z,0.10
2022-12-11T12:07:10.707Z,0.20
2022-12-11T12:09:49.172Z,0.50
2022-12-11T12:12:33.827Z,0.70
2022-12-11T12:15:25.495Z,1.10
2022-12-11T12:17:58.134Z,1.40
2022-12-11T12:20:38.980Z,1.30
2022-12-11T12:23:37.858Z,1.40
2022-12-11T12:26:17.397Z,1.30
2022-12-11T12:28:53.963Z,1.40
2022-12-11T12:31:44.984Z,1.50
2022-12-11T12:34:30.953Z,1.40
2022-12-11T12:37:09.092Z,1.80
2022-12-11T12:39:50.510Z,1.80
2022-12-11T12:42:31.958Z,2.10
2022-12-11T12:45:07.375Z,2.30
2022-12-11T12:47:37.683Z,2.50
2022-12-11T12:50:14.014Z,2.30
2022-12-11T12:52:43.859Z,1.90
2022-12-11T12:55:27.314Z,1.60
2022-12-11T12:57:58.442Z,1.30
2022-12-11T13:00:35.104Z,1.60
2022-12-11T13:03:14.450Z,1.80
2022-12-11T13:05:57.536Z,1.40
2022-12-11T13:08:27.702Z,1.10
2022-12-11T13:11:03.576Z,1.40
2022-12-11T13:13:39.252Z,1.40
2022-12-11T13:16:24.776Z,1.10
2022-12-11T13:18:55.717Z,1.30
2022-12-11T13:21:32.912Z,1.40
2022-12-11T13:24:25.708Z,1.40
2022-12-11T13:26:54.338Z,1.40
2022-12-11T13:29:36.539Z,1.50
2022-12-11T13:32:24.069Z,1.30
2022-12-11T13:34:58.834Z,1.30
2022-12-11T13:37:33.077Z,1.40
2022-12-11T13:40:02.469Z,1.60
2022-12-11T13:42:35.798Z,1.40
2022-12-11T13:45:07.317Z,1.30
2022-12-11T13:47:37.844Z,1.30
2022-12-11T13:50:25.134Z,1.30
2022-12-11T13:52:59.594Z,1.20
2022-12-11T13:55:31.707Z,1.20
2022-12-11T13:58:00.553Z,1.10
2022-12-11T14:00:32.740Z,1.00
2022-12-11T14:03:07.392Z,0.90
2022-12-11T14:05:36.552Z,0.60
2022-12-11T14:08:11.190Z,0.70
2022-12-11T14:10:41.434Z,0.70
2022-12-11T14:13:19.326Z,0.60
2022-12-11T14:15:48.363Z,0.40
2022-12-11T14:18:22.391Z,0.30
2022-12-11T14:20:56.351Z,0.40
2022-12-11T14:23:29.070Z,0.30
2022-12-11T14:26:00.500Z,0.20
2022-12-11T14:28:31.333Z,0.20
2022-12-11T14:31:01.992Z,0.10
2022-12-11T14:33:34.232Z,0.10
2022-12-11T14:36:03.388Z,0.10
2022-12-11T14:38:37.805Z,0.00
2022-12-11T14:41:13.727Z,0.00
2022-12-11T14:43:48.430Z,-0.10
2022-12-11T14:46:23.418Z,-0.10
2022-12-11T14:49:00.957Z,-0.30
2022-12-11T14:51:35.808Z,-0.30
2022-12-11T14:54:07.397Z,-0.40
2022-12-11T14:56:36.038Z,-0.50
2022-12-11T14:59:09.088Z,-0.60
2022-12-11T15:01:39.304Z,-0.70
2022-12-11T15:04:24.534Z,-0.70
2022-12-11T15:06:53.309Z,-0.80
2022-12-11T15:09:28.847Z,-0.90
2022-12-11T15:12:00.617Z,-0.90
2022-12-11T15:14:29.767Z,-1.00
2022-12-11T15:16:59.202Z,-1.10
2022-12-11T15:19:34.125Z,-1.20
2022-12-11T15:22:08.237Z,-1.30
2022-12-11T15:24:42.088Z,-1.40
2022-12-11T15:27:27.424Z,-1.40
2022-12-11T15:29:56.832Z,-1.60
2022-12-11T15:32:25.696Z,-1.70
2022-12-11T15:34:55.991Z,-1.80
2022-12-11T15:37:26.968Z,-1.90
2022-12-11T15:40:00.173Z,-1.90
2022-12-11T15:42:32.411Z,-2.10
2022-12-11T15:45:01.366Z,-2.20
2022-12-11T15:47:32.154Z,-2.20
2022-12-11T15:50:03.523Z,-2.20
2022-12-11T15:52:34.446Z,-2.30
2022-12-11T15:55:04.731Z,-2.30
2022-12-11T15:57:33.102Z,-2.40
2022-12-11T16:00:01.924Z,-2.40
2022-12-11T16:02:30.203Z,-2.40
2022-12-11T16:04:58.467Z,-2.50
2022-12-11T16:07:28.255Z,-2.50
2022-12-11T16:09:56.772Z,-2.50
2022-12-11T16:12:26.572Z,-2.60
2022-12-11T16:14:54.886Z,-2.70
2022-12-11T16:17:24.324Z,-2.80
2022-12-11T16:19:55.473Z,-2.80
2022-12-11T16:22:23.882Z,-2.90
2022-12-11T16:24:55.616Z,-3.00
2022-12-11T16:27:26.049Z,-3.10
2022-12-11T16:29:56.646Z,-3.10
2022-12-11T16:32:24.938Z,-3.20
2022-12-11T16:34:55.371Z,-3.40
2022-12-11T16:37:23.699Z,-3.30
2022-12-11T16:39:52.010Z,-3.40
2022-12-11T16:42:21.278Z,-3.40
2022-12-11T16:44:51.456Z,-3.40
2022-12-11T16:47:19.854Z,-3.50
2022-12-11T16:49:48.200Z,-3.40
2022-12-11T16:52:21.941Z,-3.50
2022-12-11T16:54:50.779Z,-3.50
2022-12-11T16:57:19.246Z,-3.50
2022-12-11T16:59:50.183Z,-3.50
2022-12-11T17:02:19.317Z,-3.60
2022-12-11T17:04:53.728Z,-3.60
2022-12-11T17:07:22.368Z,-3.70
2022-12-11T17:09:50.900Z,-3.80
2022-12-11T17:12:23.150Z,-3.80
2022-12-11T17:14:53.152Z,-3.90
2022-12-11T17:17:22.784Z,-4.00
2022-12-11T17:19:52.180Z,-4.00
2022-12-11T17:22:20.860Z,-3.90
2022-12-11T17:24:49.592Z,-3.90
2022-12-11T17:27:18.348Z,-4.00
2022-12-11T17:29:49.464Z,-4.00
2022-12-11T17:32:19.942Z,-4.00
2022-12-11T17:34:50.462Z,-4.10
2022-12-11T17:37:19.253Z,-4.10
2022-12-11T17:39:52.693Z,-4.10
2022-12-11T17:42:21.044Z,-4.20
2022-12-11T17:44:53.709Z,-4.30
2022-12-11T17:47:28.404Z,-4.40
2022-12-11T17:49:57.041Z,-4.40
2022-12-11T17:52:30.906Z,-4.40
2022-12-11T17:55:03.169Z,-4.40
2022-12-11T17:57:32.024Z,-4.20
2022-12-11T18:00:01.000Z,-4.30
2022-12-11T18:02:35.337Z,-4.20
2022-12-11T18:05:05.355Z,-4.20
2022-12-11T18:07:33.679Z,-4.20
2022-12-11T18:10:02.120Z,-4.30
2022-12-11T18:12:32.833Z,-4.30
2022-12-11T18:15:03.137Z,-4.20
2022-12-11T18:17:32.857Z,-4.30
2022-12-11T18:20:03.816Z,-4.40
2022-12-11T18:22:32.446Z,-4.50
2022-12-11T18:25:03.904Z,-4.60
2022-12-11T18:27:38.496Z,-4.70
2022-12-11T18:30:08.465Z,-4.80
2022-12-11T18:32:38.165Z,-4.90
2022-12-11T18:35:07.890Z,-4.80
2022-12-11T18:37:36.953Z,-4.80
2022-12-11T18:40:10.388Z,-4.70
2022-12-11T18:42:38.975Z,-4.70
2022-12-11T18:45:09.478Z,-4.70
2022-12-11T18:47:39.592Z,-4.60
2022-12-11T18:50:09.343Z,-4.60
2022-12-11T18:52:37.875Z,-4.60
2022-12-11T18:55:07.796Z,-4.50
2022-12-11T18:57:37.234Z,-4.50
2022-12-11T19:00:07.652Z,-4.50
2022-12-11T19:02:39.371Z,-4.60
2022-12-11T19:05:11.072Z,-4.60
2022-12-11T19:07:40.130Z,-4.70
2022-12-11T19:10:10.083Z,-4.70
2022-12-11T19:12:39.636Z,-4.70
2022-12-11T19:15:10.813Z,-4.70
2022-12-11T19:17:42.899Z,-4.70
2022-12-11T19:20:40.544Z,-4.70
2022-12-11T19:23:02.521Z,-4.70
2022-12-11T19:25:31.099Z,-4.70
2022-12-11T19:28:01.561Z,-4.70
2022-12-11T19:30:31.056Z,-4.80
2022-12-11T19:33:01.279Z,-4.90
2022-12-11T19:35:30.565Z,-5.10
2022-12-11T19:37:59.515Z,-5.10
2022-12-11T19:40:28.475Z,-5.20
2022-12-11T19:42:57.133Z,-5.30
2022-12-11T19:45:27.040Z,-5.30
2022-12-11T19:47:55.400Z,-5.20
2022-12-11T19:50:25.279Z,-5.10
2022-12-11T19:52:55.689Z,-4.90
2022-12-11T19:55:30.506Z,-4.80
2022-12-11T19:57:59.093Z,-4.70
2022-12-11T20:00:28.182Z,-4.60
2022-12-11T20:02:56.772Z,-4.60
2022-12-11T20:05:26.864Z,-4.70
2022-12-11T20:07:55.214Z,-4.80
2022-12-11T20:10:23.785Z,-4.80
2022-12-11T20:12:52.607Z,-4.80
2022-12-11T20:15:21.187Z,-4.90
2022-12-11T20:17:54.355Z,-4.90
2022-12-11T20:20:23.359Z,-4.90
2022-12-11T20:22:54.894Z,-4.80
2022-12-11T20:25:23.992Z,-4.60
2022-12-11T20:27:52.638Z,-4.40
2022-12-11T20:30:21.404Z,-4.30
2022-12-11T20:32:49.973Z,-4.20
2022-12-11T20:35:18.682Z,-4.10
2022-12-11T20:37:48.470Z,-4.00
2022-12-11T20:40:18.497Z,-3.90
2022-12-11T20:42:47.313Z,-3.80
2022-12-11T20:45:15.877Z,-3.70
2022-12-11T20:47:44.443Z,-3.70
2022-12-11T20:50:12.930Z,-3.70
2022-12-11T20:52:41.785Z,-3.70
2022-12-11T20:55:14.945Z,-3.80
2022-12-11T20:57:45.427Z,-3.90
2022-12-11T21:00:15.776Z,-4.00
2022-12-11T21:02:45.484Z,-4.10
2022-12-11T21:05:15.355Z,-4.10
2022-12-11T21:07:44.358Z,-4.00
2022-12-11T21:10:14.672Z,-4.00
2022-12-11T21:12:44.678Z,-3.90
2022-12-11T21:15:14.382Z,-4.00
2022-12-11T21:17:43.110Z,-4.00
2022-12-11T21:20:13.100Z,-4.10
2022-12-11T21:22:41.636Z,-4.10
2022-12-11T21:25:11.444Z,-4.10
2022-12-11T21:27:40.283Z,-4.00
2022-12-11T21:30:14.986Z,-4.00
2022-12-11T21:32:44.841Z,-3.90
2022-12-11T21:35:13.939Z,-3.90
2022-12-11T21:37:43.717Z,-3.90
2022-12-11T21:40:13.484Z,-3.60
2022-12-11T21:42:42.704Z,-3.70
2022-12-11T21:45:52.074Z,-3.50
2022-12-11T21:48:02.146Z,-3.40
2022-12-11T21:50:30.856Z,-3.40
2022-12-11T21:52:59.672Z,-3.40
2022-12-11T21:55:28.224Z,-3.30
2022-12-11T21:57:58.612Z,-3.20
2022-12-11T22:00:29.126Z,-3.20
2022-12-11T22:02:58.436Z,-3.10
2022-12-11T22:05:27.333Z,-3.00
2022-12-11T22:07:56.028Z,-3.10
2022-12-11T22:10:24.919Z,-3.00
2022-12-11T22:12:53.783Z,-3.00
2022-12-11T22:15:22.370Z,-3.00
2022-12-11T22:17:52.283Z,-3.00
2022-12-11T22:20:21.086Z,-3.00
2022-12-11T22:22:49.807Z,-3.10
2022-12-11T22:25:19.617Z,-3.10
2022-12-11T22:27:48.017Z,-3.20
2022-12-11T22:30:18.645Z,-3.10
2022-12-11T22:32:49.167Z,-3.10
2022-12-11T22:35:21.840Z,-3.00
2022-12-11T22:37:54.013Z,-3.00
2022-12-11T22:40:22.443Z,-3.00
2022-12-11T22:42:50.883Z,-3.00
2022-12-11T22:45:19.899Z,-2.90
2022-12-11T22:47:48.423Z,-2.90
2022-12-11T22:50:19.565Z,-3.00
2022-12-11T22:52:48.054Z,-2.90
2022-12-11T22:55:17.672Z,-2.90
2022-12-11T22:57:46.157Z,-2.80
2022-12-11T23:00:18.808Z,-2.80
2022-12-11T23:02:47.437Z,-2.80
2022-12-11T23:05:16.598Z,-2.90
2022-12-11T23:07:46.936Z,-2.80
2022-12-11T23:10:16.620Z,-2.80
2022-12-11T23:12:45.053Z,-2.80
2022-12-11T23:15:13.722Z,-2.80
2022-12-11T23:17:42.355Z,-2.90
2022-12-11T23:20:14.086Z,-2.90
2022-12-11T23:22:45.318Z,-2.90
2022-12-11T23:25:15.107Z,-2.90
2022-12-11T23:27:43.918Z,-2.90
2022-12-11T23:30:15.315Z,-2.90
2022-12-11T23:32:43.698Z,-2.90
2022-12-11T23:35:13.943Z,-2.90
2022-12-11T23:37:42.911Z,-2.80
2022-12-11T23:40:14.655Z,-2.80
2022-12-11T23:42:43.537Z,-2.80
2022-12-11T23:45:14.307Z,-2.80
2022-12-11T23:47:44.125Z,-2.80
2022-12-11T23:50:13.207Z,-2.90
2022-12-11T23:52:42.576Z,-2.90
2022-12-11T23:55:13.786Z,-2.90
2022-12-11T23:57:43.154Z,-2.90
